sensor_id;sensor_type;location;lat;lon;timestamp;pressure;altitude;pressure_sealevel;temperature;humidity
8573;BME280;4324;42.012;24.872;2023-07-31T00:01:21;98242.53;;;24.75;43.66
8573;BME280;4324;42.012;24.872;2023-07-31T00:03:49;98175.25;;;24.37;43.36
8573;BME280;4324;42.012;24.872;2023-07-31T00:06:17;98234.88;;;24.92;43.03
8573;BME280;4324;42.012;24.872;2023-07-31T00:08:44;98254.06;;;25.01;43.26
8573;BME280;4324;42.012;24.872;2023-07-31T00:11:11;98225.09;;;24.91;43.16
8573;BME280;4324;42.012;24.872;2023-07-31T00:13:38;98185.41;;;24.71;43.02
8573;BME280;4324;42.012;24.872;2023-07-31T00:16:06;98192.41;;;24.82;42.89
8573;BME280;4324;42.012;24.872;2023-07-31T00:18:33;98195.06;;;24.87;43.00
8573;BME280;4324;42.012;24.872;2023-07-31T00:21:00;98279.09;;;25.32;42.85
8573;BME280;4324;42.012;24.872;2023-07-31T00:23:28;98291.84;;;25.31;43.13
8573;BME280;4324;42.012;24.872;2023-07-31T00:25:55;98286.47;;;25.26;43.05
8573;BME280;4324;42.012;24.872;2023-07-31T00:28:22;98275.09;;;25.24;42.87
8573;BME280;4324;42.012;24.872;2023-07-31T00:30:49;98282.16;;;25.25;42.94
8573;BME280;4324;42.012;24.872;2023-07-31T00:33:16;98281.88;;;25.22;43.11
8573;BME280;4324;42.012;24.872;2023-07-31T00:35:43;98258.38;;;25.07;43.25
8573;BME280;4324;42.012;24.872;2023-07-31T00:38:10;98282.44;;;25.14;43.46
8573;BME280;4324;42.012;24.872;2023-07-31T00:40:39;98296.81;;;25.14;43.31
8573;BME280;4324;42.012;24.872;2023-07-31T00:43:06;98239.25;;;24.73;43.41
8573;BME280;4324;42.012;24.872;2023-07-31T00:45:33;98273.88;;;24.86;43.52
8573;BME280;4324;42.012;24.872;2023-07-31T00:48:00;98234.44;;;24.65;43.46
8573;BME280;4324;42.012;24.872;2023-07-31T00:50:28;98260.38;;;24.76;43.87
8573;BME280;4324;42.012;24.872;2023-07-31T00:52:55;98303.59;;;25.01;44.00
8573;BME280;4324;42.012;24.872;2023-07-31T00:55:22;98248.28;;;24.53;44.08
8573;BME280;4324;42.012;24.872;2023-07-31T00:57:53;98307.72;;;24.83;44.32
8573;BME280;4324;42.012;24.872;2023-07-31T01:00:21;98229.63;;;24.31;44.40
8573;BME280;4324;42.012;24.872;2023-07-31T01:02:49;98323.16;;;24.83;44.55
8573;BME280;4324;42.012;24.872;2023-07-31T01:05:20;98284.81;;;24.55;44.72
8573;BME280;4324;42.012;24.872;2023-07-31T01:07:56;98267.78;;;24.45;44.95
8573;BME280;4324;42.012;24.872;2023-07-31T01:10:32;98319.66;;;24.82;44.94
8573;BME280;4324;42.012;24.872;2023-07-31T01:13:02;98328.31;;;24.84;44.85
8573;BME280;4324;42.012;24.872;2023-07-31T01:15:30;98281.81;;;24.62;44.78
8573;BME280;4324;42.012;24.872;2023-07-31T01:17:57;98281.25;;;24.65;44.69
8573;BME280;4324;42.012;24.872;2023-07-31T01:20:26;98235.56;;;24.43;44.94
8573;BME280;4324;42.012;24.872;2023-07-31T01:23:26;98286.34;;;24.77;44.83
8573;BME280;4324;42.012;24.872;2023-07-31T01:26:11;98317.69;;;25.03;44.54
8573;BME280;4324;42.012;24.872;2023-07-31T01:28:45;98280.41;;;24.80;44.88
8573;BME280;4324;42.012;24.872;2023-07-31T01:31:17;98234.19;;;24.51;44.84
8573;BME280;4324;42.012;24.872;2023-07-31T01:33:45;98325.28;;;25.12;44.80
8573;BME280;4324;42.012;24.872;2023-07-31T01:36:13;98286.59;;;24.91;44.67
8573;BME280;4324;42.012;24.872;2023-07-31T01:38:40;98321.19;;;25.19;44.96
8573;BME280;4324;42.012;24.872;2023-07-31T01:41:09;98319.81;;;25.22;44.55
8573;BME280;4324;42.012;24.872;2023-07-31T01:43:36;98302.25;;;25.14;44.54
8573;BME280;4324;42.012;24.872;2023-07-31T01:46:03;98265.44;;;24.98;44.83
8573;BME280;4324;42.012;24.872;2023-07-31T01:48:31;98280.03;;;25.12;44.36
8573;BME280;4324;42.012;24.872;2023-07-31T01:51:03;98248.94;;;24.99;44.52
8573;BME280;4324;42.012;24.872;2023-07-31T01:53:31;98254.81;;;25.06;44.56
8573;BME280;4324;42.012;24.872;2023-07-31T01:55:58;98223.50;;;24.90;44.59
8573;BME280;4324;42.012;24.872;2023-07-31T01:58:27;98257.28;;;25.08;44.52
8573;BME280;4324;42.012;24.872;2023-07-31T02:00:54;98248.34;;;25.07;44.70
8573;BME280;4324;42.012;24.872;2023-07-31T02:03:22;98249.94;;;25.08;44.84
8573;BME280;4324;42.012;24.872;2023-07-31T02:05:50;98245.09;;;25.05;44.66
8573;BME280;4324;42.012;24.872;2023-07-31T02:08:17;98252.66;;;25.08;44.82
8573;BME280;4324;42.012;24.872;2023-07-31T02:10:44;98240.25;;;24.97;44.95
8573;BME280;4324;42.012;24.872;2023-07-31T02:13:11;98237.56;;;24.97;44.93
8573;BME280;4324;42.012;24.872;2023-07-31T02:15:39;98263.50;;;25.14;45.16
8573;BME280;4324;42.012;24.872;2023-07-31T02:18:06;98289.44;;;25.30;44.92
8573;BME280;4324;42.012;24.872;2023-07-31T02:20:34;98210.28;;;24.78;45.34
8573;BME280;4324;42.012;24.872;2023-07-31T02:23:02;98309.16;;;25.35;45.14
8573;BME280;4324;42.012;24.872;2023-07-31T02:25:29;98261.34;;;25.10;45.19
8573;BME280;4324;42.012;24.872;2023-07-31T02:27:56;98305.38;;;25.37;45.18
8573;BME280;4324;42.012;24.872;2023-07-31T02:30:23;98306.16;;;25.42;45.05
8573;BME280;4324;42.012;24.872;2023-07-31T02:32:51;98268.34;;;25.22;45.09
8573;BME280;4324;42.012;24.872;2023-07-31T02:35:17;98198.09;;;24.81;45.16
8573;BME280;4324;42.012;24.872;2023-07-31T02:37:45;98275.88;;;25.30;45.17
8573;BME280;4324;42.012;24.872;2023-07-31T02:40:12;98304.69;;;25.60;45.22
8573;BME280;4324;42.012;24.872;2023-07-31T02:42:39;98237.72;;;25.21;45.24
8573;BME280;4324;42.012;24.872;2023-07-31T02:45:07;98258.47;;;25.36;45.14
8573;BME280;4324;42.012;24.872;2023-07-31T02:47:34;98256.28;;;25.43;44.93
8573;BME280;4324;42.012;24.872;2023-07-31T02:50:03;98279.50;;;25.59;45.21
8573;BME280;4324;42.012;24.872;2023-07-31T02:52:30;98308.41;;;25.74;45.18
8573;BME280;4324;42.012;24.872;2023-07-31T02:54:58;98260.56;;;25.49;45.04
8573;BME280;4324;42.012;24.872;2023-07-31T02:57:25;98213.31;;;25.26;44.98
8573;BME280;4324;42.012;24.872;2023-07-31T02:59:52;98207.66;;;25.23;45.01
8573;BME280;4324;42.012;24.872;2023-07-31T03:02:19;98287.50;;;25.80;44.82
8573;BME280;4324;42.012;24.872;2023-07-31T03:04:46;98238.41;;;25.42;45.27
8573;BME280;4324;42.012;24.872;2023-07-31T03:07:14;98225.66;;;25.43;44.83
8573;BME280;4324;42.012;24.872;2023-07-31T03:09:42;98219.44;;;25.42;44.85
8573;BME280;4324;42.012;24.872;2023-07-31T03:12:09;98215.91;;;25.42;45.07
8573;BME280;4324;42.012;24.872;2023-07-31T03:14:36;98242.03;;;25.67;44.96
8573;BME280;4324;42.012;24.872;2023-07-31T03:17:03;98198.59;;;25.38;45.02
8573;BME280;4324;42.012;24.872;2023-07-31T03:19:31;98190.19;;;25.39;45.09
8573;BME280;4324;42.012;24.872;2023-07-31T03:21:58;98176.63;;;25.39;45.09
8573;BME280;4324;42.012;24.872;2023-07-31T03:24:29;98196.34;;;25.50;44.91
8573;BME280;4324;42.012;24.872;2023-07-31T03:26:56;98275.31;;;26.12;45.02
8573;BME280;4324;42.012;24.872;2023-07-31T03:29:24;98188.94;;;25.61;44.55
8573;BME280;4324;42.012;24.872;2023-07-31T03:31:51;98276.31;;;26.21;44.71
8573;BME280;4324;42.012;24.872;2023-07-31T03:34:18;98234.75;;;25.96;44.49
8573;BME280;4324;42.012;24.872;2023-07-31T03:37:14;98281.09;;;26.29;44.61
8573;BME280;4324;42.012;24.872;2023-07-31T03:42:58;98292.44;;;26.36;44.50
8573;BME280;4324;42.012;24.872;2023-07-31T03:50:46;98311.19;;;26.33;44.21
8573;BME280;4324;42.012;24.872;2023-07-31T03:52:57;98269.63;;;25.79;44.21
8573;BME280;4324;42.012;24.872;2023-07-31T03:55:24;98283.75;;;25.71;44.34
8573;BME280;4324;42.012;24.872;2023-07-31T03:57:52;98264.91;;;25.50;44.49
8573;BME280;4324;42.012;24.872;2023-07-31T04:00:20;98250.78;;;25.14;45.07
8573;BME280;4324;42.012;24.872;2023-07-31T04:02:48;98284.91;;;25.05;46.25
8573;BME280;4324;42.012;24.872;2023-07-31T04:05:15;98257.44;;;24.62;47.92
8573;BME280;4324;42.012;24.872;2023-07-31T04:07:42;98347.50;;;24.98;49.20
8573;BME280;4324;42.012;24.872;2023-07-31T04:10:09;98325.91;;;24.73;49.46
8573;BME280;4324;42.012;24.872;2023-07-31T04:12:37;98324.31;;;24.67;49.70
8573;BME280;4324;42.012;24.872;2023-07-31T04:15:06;98331.63;;;24.51;52.64
8573;BME280;4324;42.012;24.872;2023-07-31T04:17:36;98367.09;;;24.49;53.64
8573;BME280;4324;42.012;24.872;2023-07-31T04:20:11;98357.34;;;24.33;55.23
8573;BME280;4324;42.012;24.872;2023-07-31T04:22:45;98280.47;;;23.62;56.55
8573;BME280;4324;42.012;24.872;2023-07-31T04:25:18;98273.69;;;23.50;57.72
8573;BME280;4324;42.012;24.872;2023-07-31T04:27:45;98327.84;;;23.85;58.14
8573;BME280;4324;42.012;24.872;2023-07-31T04:30:27;98378.94;;;24.18;58.41
8573;BME280;4324;42.012;24.872;2023-07-31T04:32:55;98342.44;;;24.05;59.47
8573;BME280;4324;42.012;24.872;2023-07-31T04:35:22;98318.91;;;24.05;59.58
8573;BME280;4324;42.012;24.872;2023-07-31T04:37:51;98279.72;;;23.98;59.99
8573;BME280;4324;42.012;24.872;2023-07-31T04:40:22;98383.00;;;24.76;60.02
8573;BME280;4324;42.012;24.872;2023-07-31T04:43:38;98301.06;;;24.45;59.78
8573;BME280;4324;42.012;24.872;2023-07-31T04:46:14;98326.69;;;24.73;58.88
8573;BME280;4324;42.012;24.872;2023-07-31T04:48:42;98287.50;;;24.60;59.05
8573;BME280;4324;42.012;24.872;2023-07-31T04:51:11;98335.84;;;24.98;59.18
8573;BME280;4324;42.012;24.872;2023-07-31T04:53:49;98343.69;;;25.04;59.27
8573;BME280;4324;42.012;24.872;2023-07-31T04:56:19;98339.63;;;25.07;58.74
8573;BME280;4324;42.012;24.872;2023-07-31T04:58:48;98275.53;;;24.77;58.18
8573;BME280;4324;42.012;24.872;2023-07-31T05:01:20;98367.38;;;25.43;58.30
8573;BME280;4324;42.012;24.872;2023-07-31T05:03:47;98338.19;;;25.30;58.10
8573;BME280;4324;42.012;24.872;2023-07-31T05:06:16;98281.94;;;25.01;58.11
8573;BME280;4324;42.012;24.872;2023-07-31T05:08:43;98308.44;;;25.20;58.44
8573;BME280;4324;42.012;24.872;2023-07-31T05:11:11;98318.38;;;25.34;58.58
8573;BME280;4324;42.012;24.872;2023-07-31T05:13:39;98317.78;;;25.48;57.18
8573;BME280;4324;42.012;24.872;2023-07-31T05:16:06;98330.44;;;25.63;57.33
8573;BME280;4324;42.012;24.872;2023-07-31T05:18:35;98311.47;;;25.57;56.77
8573;BME280;4324;42.012;24.872;2023-07-31T05:21:02;98353.00;;;25.97;56.72
8573;BME280;4324;42.012;24.872;2023-07-31T05:23:29;98288.69;;;25.64;56.58
8573;BME280;4324;42.012;24.872;2023-07-31T05:26:05;98294.59;;;25.71;56.63
8573;BME280;4324;42.012;24.872;2023-07-31T05:28:49;98382.00;;;26.36;56.58
8573;BME280;4324;42.012;24.872;2023-07-31T05:31:16;98347.34;;;26.28;56.40
8573;BME280;4324;42.012;24.872;2023-07-31T05:33:51;98326.69;;;26.32;55.77
8573;BME280;4324;42.012;24.872;2023-07-31T05:36:18;98302.63;;;26.20;55.33
8573;BME280;4324;42.012;24.872;2023-07-31T05:38:45;98366.22;;;26.72;54.91
8573;BME280;4324;42.012;24.872;2023-07-31T05:41:30;98375.25;;;26.92;54.57
8573;BME280;4324;42.012;24.872;2023-07-31T05:44:01;98300.66;;;26.60;53.74
8573;BME280;4324;42.012;24.872;2023-07-31T05:46:28;98318.69;;;26.75;53.29
8573;BME280;4324;42.012;24.872;2023-07-31T05:49:13;98353.09;;;27.09;52.74
8573;BME280;4324;42.012;24.872;2023-07-31T05:51:53;98387.56;;;27.37;52.33
8573;BME280;4324;42.012;24.872;2023-07-31T05:54:20;98359.16;;;27.24;52.21
8573;BME280;4324;42.012;24.872;2023-07-31T05:56:48;98352.81;;;27.34;51.91
8573;BME280;4324;42.012;24.872;2023-07-31T05:59:16;98376.75;;;27.51;51.47
8573;BME280;4324;42.012;24.872;2023-07-31T06:01:43;98380.75;;;27.59;51.48
8573;BME280;4324;42.012;24.872;2023-07-31T06:04:14;98404.91;;;27.84;50.93
8573;BME280;4324;42.012;24.872;2023-07-31T06:06:42;98409.41;;;27.94;50.85
8573;BME280;4324;42.012;24.872;2023-07-31T06:09:12;98400.94;;;27.95;50.40
8573;BME280;4324;42.012;24.872;2023-07-31T06:11:39;98406.69;;;27.94;50.55
8573;BME280;4324;42.012;24.872;2023-07-31T06:14:18;98402.63;;;27.91;50.81
8573;BME280;4324;42.012;24.872;2023-07-31T06:16:46;98394.47;;;27.91;50.78
8573;BME280;4324;42.012;24.872;2023-07-31T06:22:18;98386.44;;;28.19;50.52
8573;BME280;4324;42.012;24.872;2023-07-31T06:24:48;98382.47;;;28.30;50.05
8573;BME280;4324;42.012;24.872;2023-07-31T06:27:21;98366.91;;;28.50;50.22
8573;BME280;4324;42.012;24.872;2023-07-31T06:29:53;98389.28;;;28.93;49.60
8573;BME280;4324;42.012;24.872;2023-07-31T06:32:24;98386.41;;;29.17;49.23
8573;BME280;4324;42.012;24.872;2023-07-31T06:34:55;98345.00;;;29.01;48.80
8573;BME280;4324;42.012;24.872;2023-07-31T06:37:27;98350.66;;;29.05;48.81
8573;BME280;4324;42.012;24.872;2023-07-31T06:39:57;98393.97;;;29.20;49.27
8573;BME280;4324;42.012;24.872;2023-07-31T06:42:29;98395.41;;;29.04;49.71
8573;BME280;4324;42.012;24.872;2023-07-31T06:44:56;98379.69;;;28.82;50.16
8573;BME280;4324;42.012;24.872;2023-07-31T06:47:24;98395.56;;;28.93;50.14
8573;BME280;4324;42.012;24.872;2023-07-31T06:49:53;98391.63;;;29.00;50.38
8573;BME280;4324;42.012;24.872;2023-07-31T06:52:20;98355.03;;;28.73;50.27
8573;BME280;4324;42.012;24.872;2023-07-31T06:55:02;98392.75;;;28.66;50.37
8573;BME280;4324;42.012;24.872;2023-07-31T06:57:34;98333.28;;;28.08;50.65
8573;BME280;4324;42.012;24.872;2023-07-31T07:00:03;98362.41;;;28.07;51.24
8573;BME280;4324;42.012;24.872;2023-07-31T07:02:34;98390.94;;;28.10;51.79
8573;BME280;4324;42.012;24.872;2023-07-31T07:05:09;98362.19;;;27.85;52.15
8573;BME280;4324;42.012;24.872;2023-07-31T07:07:37;98338.66;;;27.56;52.86
8573;BME280;4324;42.012;24.872;2023-07-31T07:10:08;98293.94;;;27.24;53.58
8573;BME280;4324;42.012;24.872;2023-07-31T07:12:36;98334.16;;;27.46;54.09
8573;BME280;4324;42.012;24.872;2023-07-31T07:15:07;98310.91;;;27.35;53.76
8573;BME280;4324;42.012;24.872;2023-07-31T07:17:34;98327.25;;;27.54;53.79
8573;BME280;4324;42.012;24.872;2023-07-31T07:20:01;98352.28;;;27.75;53.61
8573;BME280;4324;42.012;24.872;2023-07-31T07:22:30;98384.59;;;27.95;53.38
8573;BME280;4324;42.012;24.872;2023-07-31T07:24:57;98296.53;;;27.54;53.59
8573;BME280;4324;42.012;24.872;2023-07-31T07:27:26;98333.47;;;27.79;53.58
8573;BME280;4324;42.012;24.872;2023-07-31T07:33:03;98354.19;;;27.93;54.03
8573;BME280;4324;42.012;24.872;2023-07-31T07:35:33;98300.81;;;27.60;54.33
8573;BME280;4324;42.012;24.872;2023-07-31T07:38:00;98324.78;;;27.77;54.08
8573;BME280;4324;42.012;24.872;2023-07-31T07:40:28;98299.78;;;27.56;54.27
8573;BME280;4324;42.012;24.872;2023-07-31T07:43:08;98350.88;;;27.96;54.02
8573;BME280;4324;42.012;24.872;2023-07-31T07:45:36;98346.94;;;28.03;54.06
8573;BME280;4324;42.012;24.872;2023-07-31T07:48:03;98327.03;;;27.88;53.74
8573;BME280;4324;42.012;24.872;2023-07-31T07:50:31;98328.22;;;28.01;54.08
8573;BME280;4324;42.012;24.872;2023-07-31T07:52:58;98351.31;;;28.36;53.81
8573;BME280;4324;42.012;24.872;2023-07-31T07:56:13;98372.41;;;28.77;53.40
8573;BME280;4324;42.012;24.872;2023-07-31T07:58:44;98351.13;;;28.79;52.72
8573;BME280;4324;42.012;24.872;2023-07-31T08:01:17;98303.38;;;28.68;52.28
8573;BME280;4324;42.012;24.872;2023-07-31T08:03:44;98296.13;;;28.63;52.25
8573;BME280;4324;42.012;24.872;2023-07-31T08:06:14;98297.16;;;28.81;51.69
8573;BME280;4324;42.012;24.872;2023-07-31T08:08:41;98312.50;;;29.05;51.46
8573;BME280;4324;42.012;24.872;2023-07-31T08:11:11;98345.41;;;29.22;51.38
8573;BME280;4324;42.012;24.872;2023-07-31T08:13:38;98347.44;;;29.03;51.60
8573;BME280;4324;42.012;24.872;2023-07-31T08:16:06;98292.69;;;28.58;51.96
8573;BME280;4324;42.012;24.872;2023-07-31T08:18:34;98353.88;;;28.93;52.14
8573;BME280;4324;42.012;24.872;2023-07-31T08:21:02;98298.75;;;28.68;51.63
8573;BME280;4324;42.012;24.872;2023-07-31T08:23:29;98330.16;;;28.93;51.65
8573;BME280;4324;42.012;24.872;2023-07-31T08:26:07;98368.22;;;29.26;51.81
8573;BME280;4324;42.012;24.872;2023-07-31T08:28:58;98293.13;;;28.92;51.40
8573;BME280;4324;42.012;24.872;2023-07-31T08:31:35;98276.66;;;28.98;51.11
8573;BME280;4324;42.012;24.872;2023-07-31T08:34:03;98359.69;;;29.55;50.89
8573;BME280;4324;42.012;24.872;2023-07-31T08:36:29;98283.41;;;29.14;50.60
8573;BME280;4324;42.012;24.872;2023-07-31T08:38:57;98318.38;;;29.62;50.12
8573;BME280;4324;42.012;24.872;2023-07-31T08:41:24;98324.50;;;29.81;49.52
8573;BME280;4324;42.012;24.872;2023-07-31T08:43:55;98350.47;;;30.15;49.65
8573;BME280;4324;42.012;24.872;2023-07-31T08:46:28;98307.41;;;29.89;49.55
8573;BME280;4324;42.012;24.872;2023-07-31T08:49:04;98366.41;;;30.22;49.37
8573;BME280;4324;42.012;24.872;2023-07-31T08:51:58;98312.06;;;29.89;49.26
8573;BME280;4324;42.012;24.872;2023-07-31T08:54:29;98291.00;;;29.53;49.30
8573;BME280;4324;42.012;24.872;2023-07-31T08:56:59;98298.09;;;29.40;49.91
8573;BME280;4324;42.012;24.872;2023-07-31T08:59:31;98340.72;;;29.64;49.89
8573;BME280;4324;42.012;24.872;2023-07-31T09:02:05;98369.44;;;29.98;49.31
8573;BME280;4324;42.012;24.872;2023-07-31T09:05:07;98367.25;;;30.22;48.83
8573;BME280;4324;42.012;24.872;2023-07-31T09:10:40;98291.69;;;29.95;47.85
8573;BME280;4324;42.012;24.872;2023-07-31T09:13:11;98330.72;;;30.18;47.34
8573;BME280;4324;42.012;24.872;2023-07-31T09:15:44;98370.81;;;30.31;47.30
8573;BME280;4324;42.012;24.872;2023-07-31T09:21:57;98342.53;;;30.27;47.05
8573;BME280;4324;42.012;24.872;2023-07-31T09:26:28;98317.38;;;30.39;46.52
8573;BME280;4324;42.012;24.872;2023-07-31T09:28:00;98355.69;;;30.79;45.87
8573;BME280;4324;42.012;24.872;2023-07-31T09:30:47;98328.06;;;30.58;45.67
8573;BME280;4324;42.012;24.872;2023-07-31T09:33:15;98300.38;;;30.42;45.43
8573;BME280;4324;42.012;24.872;2023-07-31T09:35:42;98273.50;;;30.35;45.36
8573;BME280;4324;42.012;24.872;2023-07-31T09:38:14;98353.19;;;31.00;45.17
8573;BME280;4324;42.012;24.872;2023-07-31T09:43:21;98349.03;;;31.51;44.03
8573;BME280;4324;42.012;24.872;2023-07-31T09:45:55;98302.00;;;31.31;43.06
8573;BME280;4324;42.012;24.872;2023-07-31T09:48:23;98331.81;;;31.50;42.88
8573;BME280;4324;42.012;24.872;2023-07-31T09:50:53;98255.13;;;31.07;43.44
8573;BME280;4324;42.012;24.872;2023-07-31T09:53:28;98304.59;;;31.37;43.37
8573;BME280;4324;42.012;24.872;2023-07-31T09:55:58;98288.34;;;31.31;43.46
8573;BME280;4324;42.012;24.872;2023-07-31T09:58:28;98299.47;;;31.61;42.58
8573;BME280;4324;42.012;24.872;2023-07-31T10:00:57;98303.47;;;31.55;42.39
8573;BME280;4324;42.012;24.872;2023-07-31T10:03:26;98250.34;;;31.30;41.72
8573;BME280;4324;42.012;24.872;2023-07-31T10:05:55;98324.78;;;31.93;42.00
8573;BME280;4324;42.012;24.872;2023-07-31T10:08:28;98273.88;;;31.83;41.28
8573;BME280;4324;42.012;24.872;2023-07-31T10:10:58;98320.88;;;32.20;40.78
8573;BME280;4324;42.012;24.872;2023-07-31T10:13:27;98268.56;;;31.87;40.58
8573;BME280;4324;42.012;24.872;2023-07-31T10:15:58;98319.56;;;32.35;40.18
8573;BME280;4324;42.012;24.872;2023-07-31T10:18:26;98259.19;;;32.14;40.11
8573;BME280;4324;42.012;24.872;2023-07-31T10:20:54;98305.59;;;32.74;39.66
8573;BME280;4324;42.012;24.872;2023-07-31T10:23:24;98301.94;;;33.00;39.25
8573;BME280;4324;42.012;24.872;2023-07-31T10:25:53;98245.53;;;32.52;39.00
8573;BME280;4324;42.012;24.872;2023-07-31T10:28:21;98269.59;;;32.46;39.29
8573;BME280;4324;42.012;24.872;2023-07-31T10:30:49;98265.72;;;32.39;39.75
8573;BME280;4324;42.012;24.872;2023-07-31T10:33:17;98243.00;;;32.38;39.38
8573;BME280;4324;42.012;24.872;2023-07-31T10:35:49;98270.13;;;32.69;39.43
8573;BME280;4324;42.012;24.872;2023-07-31T10:38:19;98270.78;;;32.66;39.19
8573;BME280;4324;42.012;24.872;2023-07-31T10:40:49;98270.06;;;32.48;39.03
8573;BME280;4324;42.012;24.872;2023-07-31T10:43:24;98273.44;;;32.37;39.15
8573;BME280;4324;42.012;24.872;2023-07-31T10:45:53;98238.94;;;31.97;39.08
8573;BME280;4324;42.012;24.872;2023-07-31T10:48:20;98216.22;;;31.79;38.86
8573;BME280;4324;42.012;24.872;2023-07-31T10:50:50;98261.78;;;32.01;38.42
8573;BME280;4324;42.012;24.872;2023-07-31T10:53:24;98224.47;;;31.71;38.37
8573;BME280;4324;42.012;24.872;2023-07-31T10:55:57;98246.81;;;31.99;38.14
8573;BME280;4324;42.012;24.872;2023-07-31T10:58:29;98189.81;;;31.84;37.88
8573;BME280;4324;42.012;24.872;2023-07-31T11:00:58;98209.28;;;31.99;37.49
8573;BME280;4324;42.012;24.872;2023-07-31T11:03:27;98193.69;;;31.91;37.85
8573;BME280;4324;42.012;24.872;2023-07-31T11:06:09;98246.75;;;32.25;37.55
8573;BME280;4324;42.012;24.872;2023-07-31T11:08:47;98244.50;;;32.18;37.31
8573;BME280;4324;42.012;24.872;2023-07-31T11:11:35;98208.16;;;31.92;37.42
8573;BME280;4324;42.012;24.872;2023-07-31T11:14:23;98180.25;;;32.07;37.43
8573;BME280;4324;42.012;24.872;2023-07-31T11:16:59;98229.06;;;32.90;37.31
8573;BME280;4324;42.012;24.872;2023-07-31T11:19:30;98180.50;;;33.20;36.23
8573;BME280;4324;42.012;24.872;2023-07-31T11:22:03;98215.47;;;33.65;35.33
8573;BME280;4324;42.012;24.872;2023-07-31T11:24:48;98209.66;;;33.46;35.39
8573;BME280;4324;42.012;24.872;2023-07-31T11:27:27;98218.19;;;33.53;35.48
8573;BME280;4324;42.012;24.872;2023-07-31T11:30:00;98182.63;;;33.57;35.45
8573;BME280;4324;42.012;24.872;2023-07-31T11:32:27;98157.16;;;33.68;35.01
8573;BME280;4324;42.012;24.872;2023-07-31T11:34:54;98207.63;;;34.22;34.58
8573;BME280;4324;42.012;24.872;2023-07-31T11:37:22;98179.81;;;34.11;35.87
8573;BME280;4324;42.012;24.872;2023-07-31T11:40:02;98142.09;;;33.75;36.00
8573;BME280;4324;42.012;24.872;2023-07-31T11:42:30;98226.31;;;34.16;36.41
8573;BME280;4324;42.012;24.872;2023-07-31T11:44:57;98158.50;;;33.62;36.37
8573;BME280;4324;42.012;24.872;2023-07-31T11:47:28;98200.78;;;33.82;36.93
8573;BME280;4324;42.012;24.872;2023-07-31T11:49:57;98226.19;;;34.12;37.58
8573;BME280;4324;42.012;24.872;2023-07-31T11:52:29;98195.28;;;34.28;36.98
8573;BME280;4324;42.012;24.872;2023-07-31T11:55:08;98192.91;;;34.63;36.55
8573;BME280;4324;42.012;24.872;2023-07-31T11:57:39;98234.94;;;35.12;36.63
8573;BME280;4324;42.012;24.872;2023-07-31T12:00:08;98160.16;;;34.58;36.33
8573;BME280;4324;42.012;24.872;2023-07-31T12:02:37;98227.69;;;34.34;36.93
8573;BME280;4324;42.012;24.872;2023-07-31T12:05:13;98185.09;;;33.29;38.51
8573;BME280;4324;42.012;24.872;2023-07-31T12:07:47;98163.59;;;32.89;39.62
8573;BME280;4324;42.012;24.872;2023-07-31T12:10:28;98211.53;;;33.33;39.65
8573;BME280;4324;42.012;24.872;2023-07-31T12:13:07;98251.38;;;33.60;39.77
8573;BME280;4324;42.012;24.872;2023-07-31T12:16:02;98203.38;;;33.24;39.68
8573;BME280;4324;42.012;24.872;2023-07-31T12:18:34;98162.19;;;32.83;39.72
8573;BME280;4324;42.012;24.872;2023-07-31T12:21:03;98228.72;;;33.21;39.80
8573;BME280;4324;42.012;24.872;2023-07-31T12:23:32;98214.28;;;33.12;39.63
8573;BME280;4324;42.012;24.872;2023-07-31T12:26:05;98196.28;;;33.03;39.78
8573;BME280;4324;42.012;24.872;2023-07-31T12:28:40;98165.22;;;32.90;39.38
8573;BME280;4324;42.012;24.872;2023-07-31T12:31:09;98244.34;;;33.51;39.96
8573;BME280;4324;42.012;24.872;2023-07-31T12:33:37;98176.28;;;33.02;40.21
8573;BME280;4324;42.012;24.872;2023-07-31T12:36:07;98229.03;;;33.50;40.21
8573;BME280;4324;42.012;24.872;2023-07-31T12:38:35;98208.06;;;33.45;40.08
8573;BME280;4324;42.012;24.872;2023-07-31T12:41:02;98209.84;;;33.41;40.84
8573;BME280;4324;42.012;24.872;2023-07-31T12:43:29;98177.28;;;32.68;41.96
8573;BME280;4324;42.012;24.872;2023-07-31T12:45:58;98169.59;;;32.23;42.43
8573;BME280;4324;42.012;24.872;2023-07-31T12:48:25;98257.28;;;32.61;43.04
8573;BME280;4324;42.012;24.872;2023-07-31T12:50:52;98213.06;;;32.24;43.21
8573;BME280;4324;42.012;24.872;2023-07-31T12:53:19;98203.00;;;32.08;43.49
8573;BME280;4324;42.012;24.872;2023-07-31T12:55:49;98208.97;;;32.01;43.39
8573;BME280;4324;42.012;24.872;2023-07-31T12:58:16;98162.78;;;31.82;43.34
8573;BME280;4324;42.012;24.872;2023-07-31T13:00:45;98241.06;;;32.39;43.27
8573;BME280;4324;42.012;24.872;2023-07-31T13:03:39;98146.16;;;31.96;42.68
8573;BME280;4324;42.012;24.872;2023-07-31T13:06:12;98191.34;;;32.58;42.34
8573;BME280;4324;42.012;24.872;2023-07-31T13:08:41;98224.78;;;33.10;41.94
8573;BME280;4324;42.012;24.872;2023-07-31T13:14:05;98201.47;;;33.37;41.28
8573;BME280;4324;42.012;24.872;2023-07-31T13:16:33;98195.28;;;33.49;41.17
8573;BME280;4324;42.012;24.872;2023-07-31T13:19:03;98125.50;;;33.17;40.63
8573;BME280;4324;42.012;24.872;2023-07-31T13:21:30;98204.84;;;33.64;40.79
8573;BME280;4324;42.012;24.872;2023-07-31T13:23:57;98203.28;;;33.75;40.71
8573;BME280;4324;42.012;24.872;2023-07-31T13:26:26;98120.66;;;33.35;40.30
8573;BME280;4324;42.012;24.872;2023-07-31T13:28:53;98179.38;;;33.76;39.91
8573;BME280;4324;42.012;24.872;2023-07-31T13:31:20;98217.09;;;34.00;39.88
8573;BME280;4324;42.012;24.872;2023-07-31T13:33:49;98160.59;;;33.78;39.76
8573;BME280;4324;42.012;24.872;2023-07-31T13:36:17;98148.50;;;33.91;39.40
8573;BME280;4324;42.012;24.872;2023-07-31T13:38:44;98157.50;;;34.12;39.08
8573;BME280;4324;42.012;24.872;2023-07-31T13:41:11;98172.84;;;34.13;39.01
8573;BME280;4324;42.012;24.872;2023-07-31T13:43:38;98170.75;;;34.23;39.00
8573;BME280;4324;42.012;24.872;2023-07-31T13:46:06;98172.84;;;34.13;38.55
8573;BME280;4324;42.012;24.872;2023-07-31T13:48:36;98192.28;;;34.08;38.69
8573;BME280;4324;42.012;24.872;2023-07-31T13:51:06;98196.28;;;33.99;38.56
8573;BME280;4324;42.012;24.872;2023-07-31T13:53:40;98197.44;;;34.10;38.24
8573;BME280;4324;42.012;24.872;2023-07-31T13:56:07;98195.97;;;34.12;37.91